createdAt,value
2017-03-21T00:00:07.416Z,936.06
2017-03-21T00:00:35.566Z,935.98
2017-03-21T00:01:03.579Z,936.02
2017-03-21T00:01:31.701Z,936
2017-03-21T00:01:59.933Z,936
2017-03-21T00:02:28.184Z,936.03
2017-03-21T00:02:56.298Z,936.04
2017-03-21T00:03:24.543Z,936.04
2017-03-21T00:03:52.630Z,936.08
2017-03-21T00:04:20.930Z,936.04
2017-03-21T00:04:49.156Z,936.07
2017-03-21T00:05:17.435Z,936.05
2017-03-21T00:05:45.623Z,936.06
2017-03-21T00:06:13.851Z,936.08
2017-03-21T00:06:42.090Z,936.03
2017-03-21T00:07:10.386Z,936.08
2017-03-21T00:07:38.670Z,936.06
2017-03-21T00:08:06.833Z,936.07
2017-03-21T00:08:35.047Z,936.06
2017-03-21T00:09:03.314Z,936.1
2017-03-21T00:09:31.307Z,936.05
2017-03-21T00:09:59.421Z,936.04
2017-03-21T00:10:27.621Z,936.09
2017-03-21T00:10:55.769Z,936.12
2017-03-21T00:11:23.828Z,936.08
2017-03-21T00:11:51.994Z,936.1
2017-03-21T00:12:20.340Z,936.1
2017-03-21T00:12:48.505Z,936.14
2017-03-21T00:13:16.625Z,936.14
2017-03-21T00:13:44.693Z,936.13
2017-03-21T00:14:12.848Z,936.13
2017-03-21T00:14:40.998Z,936.13
2017-03-21T00:15:09.182Z,936.15
2017-03-21T00:15:37.152Z,936.14
2017-03-21T00:16:05.317Z,936.14
2017-03-21T00:16:33.528Z,936.17
2017-03-21T00:17:01.610Z,936.21
2017-03-21T00:17:29.879Z,936.16
2017-03-21T00:17:57.932Z,936.18
2017-03-21T00:18:26.088Z,936.2
2017-03-21T00:18:54.257Z,936.18
2017-03-21T00:19:22.442Z,936.2
2017-03-21T00:19:50.578Z,936.22
2017-03-21T00:20:18.797Z,936.18
2017-03-21T00:20:46.815Z,936.15
2017-03-21T00:21:14.877Z,936.15
2017-03-21T00:21:43.007Z,936.16
2017-03-21T00:22:11.088Z,936.16
2017-03-21T00:22:39.227Z,936.15
2017-03-21T00:23:07.379Z,936.18
2017-03-21T00:23:35.469Z,936.21
2017-03-21T00:24:03.755Z,936.18
2017-03-21T00:24:31.809Z,936.17
2017-03-21T00:24:59.895Z,936.18
2017-03-21T00:25:28.118Z,936.18
2017-03-21T00:25:56.333Z,936.15
2017-03-21T00:26:24.371Z,936.17
2017-03-21T00:26:52.561Z,936.21
2017-03-21T00:27:20.933Z,936.18
2017-03-21T00:27:49.213Z,936.17
2017-03-21T00:28:17.453Z,936.12
2017-03-21T00:28:45.562Z,936.16
2017-03-21T00:29:13.830Z,936.17
2017-03-21T00:29:42.004Z,936.15
2017-03-21T00:30:10.216Z,936.2
2017-03-21T00:30:38.330Z,936.18
2017-03-21T00:31:06.483Z,936.13
2017-03-21T00:31:34.542Z,936.15
2017-03-21T00:32:02.484Z,936.13
2017-03-21T00:32:30.877Z,936.11
2017-03-21T00:32:58.980Z,936.11
2017-03-21T00:33:27.047Z,936.14
2017-03-21T00:33:55.127Z,936.11
2017-03-21T00:34:23.283Z,936.15
2017-03-21T00:34:51.457Z,936.1
2017-03-21T00:35:19.640Z,936.15
2017-03-21T00:35:47.833Z,936.12
2017-03-21T00:36:16.060Z,936.14
2017-03-21T00:36:44.130Z,936.14
2017-03-21T00:37:12.309Z,936.11
2017-03-21T00:37:40.659Z,936.13
2017-03-21T00:38:08.896Z,936.12
2017-03-21T00:38:37.196Z,936.15
2017-03-21T00:39:05.470Z,936.13
2017-03-21T00:39:33.428Z,936.08
2017-03-21T00:40:01.563Z,936.11
2017-03-21T00:40:29.632Z,936.11
2017-03-21T00:40:57.684Z,936.09
2017-03-21T00:41:25.869Z,936.06
2017-03-21T00:41:54.123Z,936.08
2017-03-21T00:42:22.238Z,936.07
2017-03-21T00:42:50.289Z,936.09
2017-03-21T00:43:18.470Z,936.08
2017-03-21T00:43:46.651Z,936.05
2017-03-21T00:44:14.853Z,936.02
2017-03-21T00:44:43.098Z,936.03
2017-03-21T00:45:11.389Z,936.1
2017-03-21T00:45:39.545Z,936.03
2017-03-21T00:46:07.615Z,936.01
2017-03-21T00:46:35.712Z,936.06
2017-03-21T00:47:03.812Z,935.98
2017-03-21T00:47:31.941Z,936
2017-03-21T00:48:00.078Z,936.02
2017-03-21T00:48:28.099Z,936.03
2017-03-21T00:48:56.094Z,936
2017-03-21T00:49:24.304Z,936.02
2017-03-21T00:49:52.495Z,936.03
2017-03-21T00:50:20.646Z,935.99
2017-03-21T00:50:48.812Z,936
2017-03-21T00:51:17.026Z,935.95
2017-03-21T00:51:45.294Z,936
2017-03-21T00:52:13.519Z,936
2017-03-21T00:52:41.856Z,936
2017-03-21T00:53:10.070Z,935.97
2017-03-21T00:53:38.339Z,935.99
2017-03-21T00:54:06.598Z,935.99
2017-03-21T00:54:34.756Z,935.97
2017-03-21T00:55:02.766Z,936.01
2017-03-21T00:55:30.900Z,935.99
2017-03-21T00:55:58.918Z,935.99
2017-03-21T00:56:27.198Z,935.99
2017-03-21T00:56:55.178Z,936
2017-03-21T00:57:23.426Z,935.97
2017-03-21T00:57:51.610Z,936
2017-03-21T00:58:19.754Z,935.99
2017-03-21T00:58:47.980Z,935.98
2017-03-21T00:59:16.061Z,935.98
2017-03-21T00:59:44.360Z,935.94
2017-03-21T01:00:12.513Z,935.94
2017-03-21T01:00:40.652Z,935.93
2017-03-21T01:01:08.850Z,935.95
2017-03-21T01:01:37.116Z,935.97
2017-03-21T01:02:05.265Z,935.95
2017-03-21T01:02:33.343Z,935.98
2017-03-21T01:03:01.560Z,935.96
2017-03-21T01:03:29.731Z,935.99
2017-03-21T01:03:57.980Z,935.94
2017-03-21T01:04:26.103Z,935.96
2017-03-21T01:04:54.246Z,935.97
2017-03-21T01:05:22.376Z,935.93
2017-03-21T01:05:50.280Z,935.99
2017-03-21T01:06:18.483Z,935.97
2017-03-21T01:06:46.763Z,936
2017-03-21T01:07:14.901Z,935.98
2017-03-21T01:07:43.159Z,935.97
2017-03-21T01:08:11.445Z,936
2017-03-21T01:08:39.653Z,936.01
2017-03-21T01:09:07.793Z,935.96
2017-03-21T01:09:35.956Z,935.98
2017-03-21T01:10:04.238Z,936.01
2017-03-21T01:10:32.209Z,936.01
2017-03-21T01:11:00.155Z,936.05
2017-03-21T01:11:28.386Z,936
2017-03-21T01:11:56.567Z,935.99
2017-03-21T01:12:24.739Z,936
2017-03-21T01:12:53.018Z,936.02
2017-03-21T01:13:21.160Z,935.99
2017-03-21T01:13:49.220Z,935.99
2017-03-21T01:14:17.378Z,936.01
2017-03-21T01:14:45.362Z,936
2017-03-21T01:15:13.465Z,936.05
2017-03-21T01:15:41.718Z,936.04
2017-03-21T01:16:09.931Z,936.03
2017-03-21T01:16:38.188Z,936.02
2017-03-21T01:17:06.455Z,936.09
2017-03-21T01:17:34.624Z,936.04
2017-03-21T01:18:03.001Z,936.04
2017-03-21T01:18:31.214Z,936.06
2017-03-21T01:18:59.527Z,936.07
2017-03-21T01:19:27.625Z,936.03
2017-03-21T01:19:55.873Z,936.03
2017-03-21T01:20:24.105Z,936.06
2017-03-21T01:20:52.303Z,936.06
2017-03-21T01:21:20.380Z,936.09
2017-03-21T01:21:48.578Z,936.05
2017-03-21T01:22:16.743Z,936.07
2017-03-21T01:22:44.905Z,936.07
2017-03-21T01:23:13.071Z,936.05
2017-03-21T01:23:41.231Z,936.04
2017-03-21T01:24:09.453Z,936.01
2017-03-21T01:24:37.588Z,936.01
2017-03-21T01:25:05.803Z,936.02
2017-03-21T01:25:34.020Z,936.06
2017-03-21T01:26:02.182Z,936.03
2017-03-21T01:26:30.417Z,936
2017-03-21T01:26:58.528Z,935.99
2017-03-21T01:27:26.588Z,936
2017-03-21T01:27:54.661Z,935.99
2017-03-21T01:28:22.950Z,936
2017-03-21T01:28:51.228Z,936.02
2017-03-21T01:29:19.456Z,936.01
2017-03-21T01:29:47.645Z,936.01
2017-03-21T01:30:15.746Z,935.95
2017-03-21T01:30:44.013Z,935.97
2017-03-21T01:31:12.222Z,935.94
2017-03-21T01:31:40.461Z,935.95
2017-03-21T01:32:08.606Z,935.93
2017-03-21T01:32:36.759Z,935.93
2017-03-21T01:33:04.894Z,935.94
2017-03-21T01:33:33.123Z,935.9
2017-03-21T01:34:01.355Z,935.92
2017-03-21T01:34:29.523Z,935.9
2017-03-21T01:34:57.562Z,935.9
2017-03-21T01:35:25.742Z,935.89
2017-03-21T01:35:53.959Z,935.94
2017-03-21T01:36:22.060Z,935.89
2017-03-21T01:36:50.240Z,935.9
2017-03-21T01:37:18.335Z,935.89
2017-03-21T01:37:46.393Z,935.88
2017-03-21T01:38:14.724Z,935.9
2017-03-21T01:38:42.967Z,935.84
2017-03-21T01:39:11.136Z,935.87
2017-03-21T01:39:39.365Z,935.88
2017-03-21T01:40:07.579Z,935.87
2017-03-21T01:40:35.791Z,935.9
2017-03-21T01:41:04.074Z,935.88
2017-03-21T01:41:32.358Z,935.86
2017-03-21T01:42:00.522Z,935.9
2017-03-21T01:42:28.777Z,935.91
2017-03-21T01:42:56.994Z,935.94
2017-03-21T01:43:25.196Z,935.93
2017-03-21T01:43:53.299Z,935.92
2017-03-21T01:44:21.446Z,935.93
2017-03-21T01:44:49.705Z,935.93
2017-03-21T01:45:17.779Z,935.92
2017-03-21T01:45:45.715Z,935.93
2017-03-21T01:46:13.843Z,935.9
2017-03-21T01:46:42.043Z,935.92
2017-03-21T01:47:10.284Z,935.89
2017-03-21T01:47:38.467Z,935.89
2017-03-21T01:48:06.850Z,935.88
2017-03-21T01:48:35.021Z,935.91
2017-03-21T01:49:03.197Z,935.89
2017-03-21T01:49:31.400Z,935.89
2017-03-21T01:49:59.705Z,935.87
2017-03-21T01:50:27.839Z,935.84
2017-03-21T01:50:56.073Z,935.83
2017-03-21T01:51:24.228Z,935.81
2017-03-21T01:51:52.425Z,935.81
2017-03-21T01:52:20.687Z,935.82
2017-03-21T01:52:48.946Z,935.8
2017-03-21T01:53:17.155Z,935.83
2017-03-21T01:53:45.327Z,935.81
2017-03-21T01:54:13.584Z,935.82
2017-03-21T01:54:41.741Z,935.85
2017-03-21T01:55:10.012Z,935.8
2017-03-21T01:55:38.060Z,935.75
2017-03-21T01:56:06.080Z,935.78
2017-03-21T01:56:34.155Z,935.79
2017-03-21T01:57:02.357Z,935.8
2017-03-21T01:57:30.482Z,935.79
2017-03-21T01:57:58.730Z,935.77
2017-03-21T01:58:26.855Z,935.77
2017-03-21T01:58:55.117Z,935.75
2017-03-21T01:59:23.261Z,935.79
2017-03-21T01:59:51.403Z,935.8
2017-03-21T02:00:19.648Z,935.78
2017-03-21T02:00:47.733Z,935.75
2017-03-21T02:01:15.896Z,935.82
2017-03-21T02:01:44.169Z,935.76
2017-03-21T02:02:12.349Z,935.8
2017-03-21T02:02:40.638Z,935.75
2017-03-21T02:03:09.088Z,935.77
2017-03-21T02:03:37.265Z,935.76
2017-03-21T02:04:05.340Z,935.76
2017-03-21T02:04:33.505Z,935.71
2017-03-21T02:05:01.763Z,935.72
2017-03-21T02:05:29.724Z,935.72
2017-03-21T02:05:57.930Z,935.73
2017-03-21T02:06:26.224Z,935.69
2017-03-21T02:06:54.282Z,935.71
2017-03-21T02:07:22.526Z,935.7
2017-03-21T02:07:50.778Z,935.67
2017-03-21T02:08:19.012Z,935.64
2017-03-21T02:08:47.071Z,935.66
2017-03-21T02:09:15.365Z,935.67
2017-03-21T02:09:43.564Z,935.62
2017-03-21T02:10:11.849Z,935.65
2017-03-21T02:10:39.901Z,935.67
2017-03-21T02:11:07.922Z,935.65
2017-03-21T02:11:36.214Z,935.67
2017-03-21T02:12:04.363Z,935.66
2017-03-21T02:12:32.590Z,935.67
2017-03-21T02:13:00.610Z,935.69
2017-03-21T02:13:28.825Z,935.68
2017-03-21T02:13:57.069Z,935.68
2017-03-21T02:14:25.095Z,935.66
2017-03-21T02:14:53.265Z,935.65
2017-03-21T02:15:21.529Z,935.68
2017-03-21T02:15:49.691Z,935.69
2017-03-21T02:16:17.982Z,935.66
2017-03-21T02:16:46.411Z,935.69
2017-03-21T02:17:14.470Z,935.65
2017-03-21T02:17:42.705Z,935.71
2017-03-21T02:18:10.680Z,935.63
2017-03-21T02:18:38.939Z,935.64
2017-03-21T02:19:07.173Z,935.64
2017-03-21T02:19:35.377Z,935.6
2017-03-21T02:20:03.311Z,935.62
2017-03-21T02:20:31.440Z,935.65
2017-03-21T02:20:59.688Z,935.64
2017-03-21T02:21:27.854Z,935.62
2017-03-21T02:21:56.009Z,935.62
2017-03-21T02:22:24.280Z,935.6
2017-03-21T02:22:52.479Z,935.65
2017-03-21T02:23:20.940Z,935.65
2017-03-21T02:23:49.102Z,935.61
2017-03-21T02:24:17.401Z,935.63
2017-03-21T02:24:45.606Z,935.62
2017-03-21T02:25:13.785Z,935.65
2017-03-21T02:25:41.745Z,935.65
2017-03-21T02:26:10.042Z,935.67
2017-03-21T02:26:38.120Z,935.67
2017-03-21T02:27:06.354Z,935.64
2017-03-21T02:27:34.604Z,935.65
2017-03-21T02:28:02.821Z,935.65
2017-03-21T02:28:31.247Z,935.69
2017-03-21T02:28:59.500Z,935.66
2017-03-21T02:29:27.683Z,935.67
2017-03-21T02:29:55.817Z,935.67
2017-03-21T02:30:23.994Z,935.64
2017-03-21T02:30:51.964Z,935.61
2017-03-21T02:31:20.122Z,935.68
2017-03-21T02:31:48.421Z,935.69
2017-03-21T02:32:16.713Z,935.7
2017-03-21T02:32:44.888Z,935.67
2017-03-21T02:33:13.154Z,935.67
2017-03-21T02:33:41.510Z,935.66
2017-03-21T02:34:09.763Z,935.68
2017-03-21T02:34:37.923Z,935.63
2017-03-21T02:35:06.229Z,935.66
2017-03-21T02:35:34.473Z,935.67
2017-03-21T02:36:02.650Z,935.67
2017-03-21T02:36:30.698Z,935.65
2017-03-21T02:36:58.949Z,935.67
2017-03-21T02:37:27.164Z,935.61
2017-03-21T02:37:55.312Z,935.68
2017-03-21T02:38:23.432Z,935.66
2017-03-21T02:38:51.691Z,935.65
2017-03-21T02:39:19.782Z,935.63
2017-03-21T02:39:48.046Z,935.62
2017-03-21T02:40:16.197Z,935.65
2017-03-21T02:40:44.510Z,935.63
2017-03-21T02:41:12.679Z,935.62
2017-03-21T02:41:40.732Z,935.63
2017-03-21T02:42:08.783Z,935.65
2017-03-21T02:42:36.989Z,935.61
2017-03-21T02:43:05.238Z,935.63
2017-03-21T02:43:33.691Z,935.6
2017-03-21T02:44:01.776Z,935.6
2017-03-21T02:44:29.846Z,935.62
2017-03-21T02:44:58.027Z,935.62
2017-03-21T02:45:26.156Z,935.66
2017-03-21T02:45:54.316Z,935.63
2017-03-21T02:46:22.516Z,935.62
2017-03-21T02:46:50.706Z,935.66
2017-03-21T02:47:18.969Z,935.63
2017-03-21T02:47:47.038Z,935.62
2017-03-21T02:48:15.135Z,935.59
2017-03-21T02:48:43.548Z,935.6
2017-03-21T02:49:11.744Z,935.62
2017-03-21T02:49:39.942Z,935.61
2017-03-21T02:50:08.214Z,935.58
2017-03-21T02:50:36.387Z,935.6
2017-03-21T02:51:04.546Z,935.61
2017-03-21T02:51:32.753Z,935.63
2017-03-21T02:52:00.898Z,935.63
2017-03-21T02:52:29.062Z,935.65
2017-03-21T02:52:57.290Z,935.64
2017-03-21T02:53:25.518Z,935.67
2017-03-21T02:53:53.851Z,935.6
2017-03-21T02:54:22.048Z,935.67
2017-03-21T02:54:50.189Z,935.66
2017-03-21T02:55:18.376Z,935.68
2017-03-21T02:55:46.631Z,935.69
2017-03-21T02:56:14.678Z,935.65
2017-03-21T02:56:42.936Z,935.66
2017-03-21T02:57:11.232Z,935.68
2017-03-21T02:57:39.402Z,935.7
2017-03-21T02:58:07.499Z,935.69
2017-03-21T02:58:35.777Z,935.71
2017-03-21T02:59:03.967Z,935.71
2017-03-21T02:59:32.214Z,935.7
2017-03-21T03:00:00.471Z,935.71
2017-03-21T03:00:28.619Z,935.68
2017-03-21T03:00:56.935Z,935.66
2017-03-21T03:01:25.059Z,935.68
2017-03-21T03:01:53.177Z,935.7
2017-03-21T03:02:21.301Z,935.67
2017-03-21T03:02:49.317Z,935.69
2017-03-21T03:03:17.600Z,935.69
2017-03-21T03:03:45.646Z,935.67
2017-03-21T03:04:13.876Z,935.66
2017-03-21T03:04:42.066Z,935.68
2017-03-21T03:05:10.294Z,935.69
2017-03-21T03:05:38.535Z,935.64
2017-03-21T03:06:06.677Z,935.67
2017-03-21T03:06:34.899Z,935.64
2017-03-21T03:07:02.918Z,935.63
2017-03-21T03:07:31.079Z,935.61
2017-03-21T03:07:59.260Z,935.62
2017-03-21T03:08:27.395Z,935.6
2017-03-21T03:08:55.522Z,935.65
2017-03-21T03:09:23.694Z,935.61
2017-03-21T03:09:51.848Z,935.6
2017-03-21T03:10:20.056Z,935.62
2017-03-21T03:10:48.234Z,935.62
2017-03-21T03:11:16.504Z,935.61
2017-03-21T03:11:44.642Z,935.59
2017-03-21T03:12:12.811Z,935.61
2017-03-21T03:12:41.028Z,935.62
2017-03-21T03:13:09.014Z,935.63
2017-03-21T03:13:37.093Z,935.59
2017-03-21T03:14:05.380Z,935.63
2017-03-21T03:14:33.601Z,935.61
2017-03-21T03:15:01.814Z,935.59
2017-03-21T03:15:29.895Z,935.61
2017-03-21T03:15:58.144Z,935.6
2017-03-21T03:16:26.198Z,935.6
2017-03-21T03:16:54.438Z,935.58
2017-03-21T03:17:22.520Z,935.58
2017-03-21T03:17:50.819Z,935.58
2017-03-21T03:18:19.016Z,935.56
2017-03-21T03:18:47.106Z,935.53
2017-03-21T03:19:15.377Z,935.56
2017-03-21T03:19:43.609Z,935.54
2017-03-21T03:20:11.839Z,935.54
2017-03-21T03:20:40.083Z,935.52
2017-03-21T03:21:08.356Z,935.48
2017-03-21T03:21:36.650Z,935.47
2017-03-21T03:22:04.950Z,935.47
2017-03-21T03:22:33.131Z,935.44
2017-03-21T03:23:01.362Z,935.45
2017-03-21T03:23:29.538Z,935.47
2017-03-21T03:23:57.728Z,935.44
2017-03-21T03:24:25.880Z,935.41
2017-03-21T03:24:54.020Z,935.43
2017-03-21T03:25:22.058Z,935.42
2017-03-21T03:25:49.956Z,935.42
2017-03-21T03:26:18.092Z,935.43
2017-03-21T03:26:46.175Z,935.41
2017-03-21T03:27:14.331Z,935.41
2017-03-21T03:27:42.296Z,935.4
2017-03-21T03:28:10.529Z,935.39
2017-03-21T03:28:38.815Z,935.4
2017-03-21T03:29:07.172Z,935.39
2017-03-21T03:29:35.414Z,935.39
2017-03-21T03:30:03.544Z,935.41
2017-03-21T03:30:31.700Z,935.38
2017-03-21T03:30:59.909Z,935.42
2017-03-21T03:31:28.096Z,935.43
2017-03-21T03:31:56.345Z,935.39
2017-03-21T03:32:24.516Z,935.38
2017-03-21T03:32:52.593Z,935.35
2017-03-21T03:33:20.795Z,935.38
2017-03-21T03:33:48.999Z,935.35
2017-03-21T03:34:17.298Z,935.35
2017-03-21T03:34:45.584Z,935.37
2017-03-21T03:35:13.842Z,935.38
2017-03-21T03:35:42.099Z,935.35
2017-03-21T03:36:10.272Z,935.33
2017-03-21T03:36:38.329Z,935.35
2017-03-21T03:37:06.297Z,935.38
2017-03-21T03:37:34.342Z,935.36
2017-03-21T03:38:02.505Z,935.36
2017-03-21T03:38:30.770Z,935.36
2017-03-21T03:38:58.980Z,935.36
2017-03-21T03:39:27.266Z,935.36
2017-03-21T03:39:55.440Z,935.35
2017-03-21T03:40:23.679Z,935.35
2017-03-21T03:40:51.798Z,935.34
2017-03-21T03:41:20.086Z,935.36
2017-03-21T03:41:48.245Z,935.34
2017-03-21T03:42:16.282Z,935.35
2017-03-21T03:42:44.507Z,935.35
2017-03-21T03:43:12.579Z,935.36
2017-03-21T03:43:40.664Z,935.36
2017-03-21T03:44:08.928Z,935.33
2017-03-21T03:44:37.101Z,935.34
2017-03-21T03:45:05.277Z,935.3
2017-03-21T03:45:33.480Z,935.32
2017-03-21T03:46:01.509Z,935.35
2017-03-21T03:46:29.698Z,935.33
2017-03-21T03:46:57.772Z,935.31
2017-03-21T03:47:25.950Z,935.32
2017-03-21T03:47:54.205Z,935.27
2017-03-21T03:48:22.382Z,935.29
2017-03-21T03:48:50.676Z,935.26
2017-03-21T03:49:19.041Z,935.27
2017-03-21T03:49:47.182Z,935.26
2017-03-21T03:50:15.358Z,935.26
2017-03-21T03:50:43.510Z,935.24
2017-03-21T03:51:11.770Z,935.27
2017-03-21T03:51:39.933Z,935.23
2017-03-21T03:52:08.203Z,935.21
2017-03-21T03:52:36.337Z,935.2
2017-03-21T03:53:04.560Z,935.17
2017-03-21T03:53:32.831Z,935.18
2017-03-21T03:54:01.085Z,935.2
2017-03-21T03:54:29.177Z,935.18
2017-03-21T03:54:57.358Z,935.17
2017-03-21T03:55:25.628Z,935.16
2017-03-21T03:55:53.917Z,935.16
2017-03-21T03:56:22.180Z,935.22
2017-03-21T03:56:50.424Z,935.19
2017-03-21T03:57:18.599Z,935.19
2017-03-21T03:57:46.786Z,935.17
2017-03-21T03:58:15.015Z,935.17
2017-03-21T03:58:43.232Z,935.21
2017-03-21T03:59:11.319Z,935.16
2017-03-21T03:59:39.609Z,935.16
2017-03-21T04:00:07.832Z,935.17
2017-03-21T04:00:35.965Z,935.17
2017-03-21T04:01:04.245Z,935.16
2017-03-21T04:01:32.529Z,935.13
2017-03-21T04:02:00.674Z,935.14
2017-03-21T04:02:28.749Z,935.12
2017-03-21T04:02:56.879Z,935.11
2017-03-21T04:03:25.077Z,935.13
2017-03-21T04:03:53.307Z,935.1
2017-03-21T04:04:21.399Z,935.12
2017-03-21T04:04:49.673Z,935.08
2017-03-21T04:05:17.753Z,935.07
2017-03-21T04:05:45.795Z,935.08
2017-03-21T04:06:13.978Z,935.06
2017-03-21T04:06:42.161Z,935.05
2017-03-21T04:07:10.553Z,935.05
2017-03-21T04:07:38.638Z,935.02
2017-03-21T04:08:06.829Z,935.04
2017-03-21T04:08:34.994Z,935.01
2017-03-21T04:09:03.221Z,935.02
2017-03-21T04:09:31.429Z,934.99
2017-03-21T04:09:59.396Z,935
2017-03-21T04:10:27.447Z,934.97
2017-03-21T04:10:55.573Z,935.01
2017-03-21T04:11:23.745Z,935
2017-03-21T04:11:51.885Z,934.97
2017-03-21T04:12:20.007Z,934.98
2017-03-21T04:12:48.245Z,934.97
2017-03-21T04:13:16.415Z,934.95
2017-03-21T04:13:44.610Z,934.97
2017-03-21T04:14:12.684Z,934.95
2017-03-21T04:14:41.091Z,935
2017-03-21T04:15:09.349Z,934.98
2017-03-21T04:15:37.502Z,934.94
2017-03-21T04:16:05.715Z,934.96
2017-03-21T04:16:33.898Z,934.94
2017-03-21T04:17:02.130Z,934.89
2017-03-21T04:17:30.248Z,934.92
2017-03-21T04:17:58.388Z,934.91
2017-03-21T04:18:26.567Z,934.88
2017-03-21T04:18:54.704Z,934.89
2017-03-21T04:19:22.962Z,934.88
2017-03-21T04:19:50.963Z,934.88
2017-03-21T04:20:19.177Z,934.87
2017-03-21T04:20:47.385Z,934.88
2017-03-21T04:21:15.503Z,934.89
2017-03-21T04:21:43.714Z,934.88
2017-03-21T04:22:11.892Z,934.84
2017-03-21T04:22:40.074Z,934.87
2017-03-21T04:23:08.323Z,934.83
2017-03-21T04:23:36.552Z,934.84
2017-03-21T04:24:04.534Z,934.82
2017-03-21T04:24:32.719Z,934.84
2017-03-21T04:25:00.807Z,934.79
2017-03-21T04:25:29.078Z,934.83
2017-03-21T04:25:57.329Z,934.82
2017-03-21T04:26:25.622Z,934.85
2017-03-21T04:26:53.856Z,934.84
2017-03-21T04:27:22.142Z,934.83
2017-03-21T04:27:50.448Z,934.8
2017-03-21T04:28:18.721Z,934.83
2017-03-21T04:28:46.922Z,934.81
2017-03-21T04:29:15.210Z,934.81
2017-03-21T04:29:43.252Z,934.82
2017-03-21T04:30:11.471Z,934.81
2017-03-21T04:30:39.419Z,934.82
2017-03-21T04:31:07.584Z,934.8
2017-03-21T04:31:35.770Z,934.8
2017-03-21T04:32:03.926Z,934.81
2017-03-21T04:32:32.066Z,934.77
2017-03-21T04:33:00.092Z,934.76
2017-03-21T04:33:28.128Z,934.74
2017-03-21T04:33:56.211Z,934.76
2017-03-21T04:34:24.228Z,934.73
2017-03-21T04:34:52.404Z,934.73
2017-03-21T04:35:20.594Z,934.73
2017-03-21T04:35:48.636Z,934.71
2017-03-21T04:36:16.798Z,934.67
2017-03-21T04:36:45.044Z,934.67
2017-03-21T04:37:13.335Z,934.68
2017-03-21T04:37:41.485Z,934.7
2017-03-21T04:38:09.754Z,934.64
2017-03-21T04:38:37.885Z,934.67
2017-03-21T04:39:06.152Z,934.69
2017-03-21T04:39:34.377Z,934.68
2017-03-21T04:40:02.509Z,934.69
2017-03-21T04:40:30.610Z,934.68
2017-03-21T04:40:58.998Z,934.64
2017-03-21T04:41:27.159Z,934.65
2017-03-21T04:41:54.986Z,934.64
2017-03-21T04:42:23.081Z,934.68
2017-03-21T04:42:51.124Z,934.67
2017-03-21T04:43:19.373Z,934.64
2017-03-21T04:43:47.515Z,934.66
2017-03-21T04:44:15.708Z,934.67
2017-03-21T04:44:44.071Z,934.65
2017-03-21T04:45:12.045Z,934.67
2017-03-21T04:45:40.225Z,934.65
2017-03-21T04:46:08.366Z,934.63
2017-03-21T04:46:36.584Z,934.64
2017-03-21T04:47:04.759Z,934.62
2017-03-21T04:47:32.770Z,934.61
2017-03-21T04:48:00.853Z,934.6
2017-03-21T04:48:29.004Z,934.58
2017-03-21T04:48:57.299Z,934.56
2017-03-21T04:49:25.538Z,934.53
2017-03-21T04:49:53.779Z,934.6
2017-03-21T04:50:22.012Z,934.57
2017-03-21T04:50:50.164Z,934.54
2017-03-21T04:51:18.340Z,934.55
2017-03-21T04:51:46.590Z,934.54
2017-03-21T04:52:14.788Z,934.52
2017-03-21T04:52:42.997Z,934.51
2017-03-21T04:53:11.295Z,934.51
2017-03-21T04:53:39.452Z,934.5
2017-03-21T04:54:07.639Z,934.48
2017-03-21T04:54:35.834Z,934.47
2017-03-21T04:55:03.964Z,934.44
2017-03-21T04:55:32.007Z,934.47
2017-03-21T04:56:00.039Z,934.44
2017-03-21T04:56:28.288Z,934.47
2017-03-21T04:56:56.449Z,934.46
2017-03-21T04:57:24.612Z,934.46
2017-03-21T04:57:52.693Z,934.44
2017-03-21T04:58:20.932Z,934.44
2017-03-21T04:58:48.992Z,934.41
2017-03-21T04:59:16.989Z,934.39
2017-03-21T04:59:45.214Z,934.42
2017-03-21T05:00:13.392Z,934.4
2017-03-21T05:00:41.608Z,934.39
2017-03-21T05:01:09.883Z,934.37
2017-03-21T05:01:38.062Z,934.38
2017-03-21T05:02:05.975Z,934.37
2017-03-21T05:02:34.214Z,934.36
2017-03-21T05:03:02.331Z,934.38
2017-03-21T05:03:30.510Z,934.37
2017-03-21T05:03:58.537Z,934.4
2017-03-21T05:04:26.707Z,934.38
2017-03-21T05:04:55.093Z,934.36
2017-03-21T05:05:23.366Z,934.36
2017-03-21T05:05:51.502Z,934.36
2017-03-21T05:06:19.762Z,934.39
2017-03-21T05:06:48.058Z,934.37
2017-03-21T05:07:16.200Z,934.36
2017-03-21T05:07:44.265Z,934.36
2017-03-21T05:08:12.279Z,934.35
2017-03-21T05:08:40.462Z,934.38
2017-03-21T05:09:08.704Z,934.39
2017-03-21T05:09:36.967Z,934.39
2017-03-21T05:10:05.303Z,934.42
2017-03-21T05:10:33.435Z,934.39
2017-03-21T05:11:01.673Z,934.42
2017-03-21T05:11:29.884Z,934.41
2017-03-21T05:11:57.955Z,934.38
2017-03-21T05:12:26.196Z,934.41
2017-03-21T05:12:54.335Z,934.39
2017-03-21T05:13:22.432Z,934.46
2017-03-21T05:13:50.569Z,934.42
2017-03-21T05:14:18.846Z,934.37
2017-03-21T05:14:47.019Z,934.37
2017-03-21T05:15:15.259Z,934.38
2017-03-21T05:15:43.492Z,934.36
2017-03-21T05:16:11.821Z,934.39
2017-03-21T05:16:40.071Z,934.34
2017-03-21T05:17:08.238Z,934.38
2017-03-21T05:17:36.484Z,934.36
2017-03-21T05:18:04.799Z,934.34
2017-03-21T05:18:32.981Z,934.35
2017-03-21T05:19:01.022Z,934.35
2017-03-21T05:19:29.098Z,934.34
2017-03-21T05:19:57.479Z,934.36
2017-03-21T05:20:25.511Z,934.38
2017-03-21T05:20:53.660Z,934.32
2017-03-21T05:21:21.815Z,934.32
2017-03-21T05:21:50.074Z,934.3
2017-03-21T05:22:18.314Z,934.36
2017-03-21T05:22:46.577Z,934.33
2017-03-21T05:23:14.811Z,934.3
2017-03-21T05:23:43.033Z,934.28
2017-03-21T05:24:11.184Z,934.3
2017-03-21T05:24:39.483Z,934.32
2017-03-21T05:25:07.739Z,934.29
2017-03-21T05:25:35.966Z,934.3
2017-03-21T05:26:03.972Z,934.25
2017-03-21T05:26:32.123Z,934.29
2017-03-21T05:27:00.286Z,934.24
2017-03-21T05:27:28.490Z,934.28
2017-03-21T05:27:56.720Z,934.27
2017-03-21T05:28:25.031Z,934.3
2017-03-21T05:28:53.196Z,934.26
2017-03-21T05:29:21.418Z,934.26
2017-03-21T05:29:49.846Z,934.23
2017-03-21T05:30:17.903Z,934.27
2017-03-21T05:30:46.087Z,934.27
2017-03-21T05:31:14.409Z,934.24
2017-03-21T05:31:42.627Z,934.26
2017-03-21T05:32:10.905Z,934.24
2017-03-21T05:32:39.020Z,934.22
2017-03-21T05:33:07.301Z,934.25
2017-03-21T05:33:35.452Z,934.22
2017-03-21T05:34:03.721Z,934.22
2017-03-21T05:34:31.843Z,934.17
2017-03-21T05:35:00.130Z,934.19
2017-03-21T05:35:28.407Z,934.19
2017-03-21T05:35:56.638Z,934.16
2017-03-21T05:36:24.893Z,934.14
2017-03-21T05:36:53.137Z,934.15
2017-03-21T05:37:21.188Z,934.15
2017-03-21T05:37:49.345Z,934.14
2017-03-21T05:38:17.555Z,934.12
2017-03-21T05:38:45.803Z,934.1
2017-03-21T05:39:13.735Z,934.08
2017-03-21T05:39:41.832Z,934.13
2017-03-21T05:40:10.249Z,934.12
2017-03-21T05:40:38.478Z,934.09
2017-03-21T05:41:06.606Z,934.11
2017-03-21T05:41:34.584Z,934.1
2017-03-21T05:42:02.772Z,934.11
2017-03-21T05:42:30.788Z,934.1
2017-03-21T05:42:59.056Z,934.11
2017-03-21T05:43:27.349Z,934.06
2017-03-21T05:43:55.380Z,934.07
2017-03-21T05:44:23.538Z,934.07
2017-03-21T05:44:51.778Z,934.06
2017-03-21T05:45:20.162Z,934.08
2017-03-21T05:45:48.129Z,934.06
2017-03-21T05:46:16.309Z,934.06
2017-03-21T05:46:44.307Z,934.07
2017-03-21T05:47:12.494Z,934.03
2017-03-21T05:47:40.625Z,934.09
2017-03-21T05:48:08.787Z,934.05
2017-03-21T05:48:37.058Z,934.04
2017-03-21T05:49:05.124Z,934.07
2017-03-21T05:49:33.253Z,934.04
2017-03-21T05:50:01.456Z,934.04
2017-03-21T05:50:29.611Z,934.04
2017-03-21T05:50:57.806Z,934.04
2017-03-21T05:51:25.898Z,934.03
2017-03-21T05:51:54.058Z,934.03
2017-03-21T05:52:22.032Z,934.02
2017-03-21T05:52:50.168Z,934.02
2017-03-21T05:53:18.257Z,934.03